sensor_id;sensor_type;location;lat;lon;timestamp;P1;durP1;ratioP1;P2;durP2;ratioP2
11245;SDS011;59870;50.106;8.580;2023-04-06T00:00:49;7.47;;;6.70;;
11245;SDS011;59870;50.106;8.580;2023-04-06T00:03:18;8.30;;;7.50;;
11245;SDS011;59870;50.106;8.580;2023-04-06T00:05:46;13.00;;;8.10;;
11245;SDS011;59870;50.106;8.580;2023-04-06T00:08:14;8.37;;;7.23;;
11245;SDS011;59870;50.106;8.580;2023-04-06T00:10:42;7.60;;;7.00;;
11245;SDS011;59870;50.106;8.580;2023-04-06T00:13:11;8.10;;;7.30;;
11245;SDS011;59870;50.106;8.580;2023-04-06T00:15:38;7.93;;;7.13;;
11245;SDS011;59870;50.106;8.580;2023-04-06T00:18:06;8.57;;;7.87;;
11245;SDS011;59870;50.106;8.580;2023-04-06T00:20:33;9.03;;;7.93;;
11245;SDS011;59870;50.106;8.580;2023-04-06T00:23:06;8.37;;;7.50;;
11245;SDS011;59870;50.106;8.580;2023-04-06T00:25:33;9.00;;;8.13;;
11245;SDS011;59870;50.106;8.580;2023-04-06T00:28:01;8.47;;;7.67;;
11245;SDS011;59870;50.106;8.580;2023-04-06T00:30:28;8.33;;;7.53;;
11245;SDS011;59870;50.106;8.580;2023-04-06T00:32:56;7.73;;;6.80;;
11245;SDS011;59870;50.106;8.580;2023-04-06T00:35:23;8.13;;;7.47;;
11245;SDS011;59870;50.106;8.580;2023-04-06T00:37:51;7.83;;;7.23;;
11245;SDS011;59870;50.106;8.580;2023-04-06T00:40:18;8.40;;;7.60;;
11245;SDS011;59870;50.106;8.580;2023-04-06T00:42:47;8.30;;;7.60;;
11245;SDS011;59870;50.106;8.580;2023-04-06T00:45:14;7.47;;;6.80;;
11245;SDS011;59870;50.106;8.580;2023-04-06T00:47:43;8.77;;;7.90;;
11245;SDS011;59870;50.106;8.580;2023-04-06T00:50:12;8.43;;;7.60;;
11245;SDS011;59870;50.106;8.580;2023-04-06T00:52:40;8.83;;;7.93;;
11245;SDS011;59870;50.106;8.580;2023-04-06T00:55:09;8.83;;;7.43;;
11245;SDS011;59870;50.106;8.580;2023-04-06T00:57:40;7.67;;;6.97;;
11245;SDS011;59870;50.106;8.580;2023-04-06T01:00:09;8.37;;;6.23;;
11245;SDS011;59870;50.106;8.580;2023-04-06T01:02:37;6.73;;;6.13;;
11245;SDS011;59870;50.106;8.580;2023-04-06T02:37:41;7.40;;;6.80;;
11245;SDS011;59870;50.106;8.580;2023-04-06T02:40:10;7.00;;;6.33;;
11245;SDS011;59870;50.106;8.580;2023-04-06T02:42:37;8.70;;;6.63;;
11245;SDS011;59870;50.106;8.580;2023-04-06T02:45:05;7.70;;;7.00;;
11245;SDS011;59870;50.106;8.580;2023-04-06T02:47:39;7.23;;;6.70;;
11245;SDS011;59870;50.106;8.580;2023-04-06T02:50:07;7.60;;;7.10;;
11245;SDS011;59870;50.106;8.580;2023-04-06T02:52:43;8.07;;;7.20;;
11245;SDS011;59870;50.106;8.580;2023-04-06T02:55:12;7.53;;;6.93;;
11245;SDS011;59870;50.106;8.580;2023-04-06T02:57:39;7.67;;;6.97;;
11245;SDS011;59870;50.106;8.580;2023-04-06T03:00:07;7.43;;;6.63;;
11245;SDS011;59870;50.106;8.580;2023-04-06T03:02:39;7.83;;;7.23;;
11245;SDS011;59870;50.106;8.580;2023-04-06T03:05:11;7.90;;;7.30;;
11245;SDS011;59870;50.106;8.580;2023-04-06T03:07:42;7.37;;;6.77;;
11245;SDS011;59870;50.106;8.580;2023-04-06T03:10:17;6.73;;;6.33;;
11245;SDS011;59870;50.106;8.580;2023-04-06T03:12:46;7.40;;;6.70;;
11245;SDS011;59870;50.106;8.580;2023-04-06T03:15:21;7.47;;;6.97;;
11245;SDS011;59870;50.106;8.580;2023-04-06T03:17:53;7.70;;;7.20;;
11245;SDS011;59870;50.106;8.580;2023-04-06T03:20:37;8.33;;;7.53;;
11245;SDS011;59870;50.106;8.580;2023-04-06T03:23:05;8.13;;;7.50;;
11245;SDS011;59870;50.106;8.580;2023-04-06T03:25:37;7.73;;;7.17;;
11245;SDS011;59870;50.106;8.580;2023-04-06T03:28:09;8.67;;;7.97;;
11245;SDS011;59870;50.106;8.580;2023-04-06T03:30:46;7.90;;;7.13;;
11245;SDS011;59870;50.106;8.580;2023-04-06T03:33:18;7.97;;;7.17;;
11245;SDS011;59870;50.106;8.580;2023-04-06T03:35:52;11.17;;;7.63;;
11245;SDS011;59870;50.106;8.580;2023-04-06T03:38:22;7.77;;;7.00;;
11245;SDS011;59870;50.106;8.580;2023-04-06T03:40:50;9.23;;;8.43;;
11245;SDS011;59870;50.106;8.580;2023-04-06T03:43:22;8.00;;;7.40;;
11245;SDS011;59870;50.106;8.580;2023-04-06T03:45:50;8.40;;;7.70;;
11245;SDS011;59870;50.106;8.580;2023-04-06T03:48:17;8.13;;;7.43;;
11245;SDS011;59870;50.106;8.580;2023-04-06T03:50:45;8.10;;;7.50;;
11245;SDS011;59870;50.106;8.580;2023-04-06T03:53:12;7.53;;;7.03;;
11245;SDS011;59870;50.106;8.580;2023-04-06T03:55:40;7.80;;;7.10;;
11245;SDS011;59870;50.106;8.580;2023-04-06T03:58:08;7.90;;;7.30;;
11245;SDS011;59870;50.106;8.580;2023-04-06T04:00:35;8.43;;;7.73;;
11245;SDS011;59870;50.106;8.580;2023-04-06T04:03:03;8.30;;;7.80;;
11245;SDS011;59870;50.106;8.580;2023-04-06T04:05:31;7.63;;;7.03;;
11245;SDS011;59870;50.106;8.580;2023-04-06T04:07:59;7.67;;;7.07;;
11245;SDS011;59870;50.106;8.580;2023-04-06T04:10:27;8.20;;;7.60;;
11245;SDS011;59870;50.106;8.580;2023-04-06T04:12:54;8.23;;;7.63;;
11245;SDS011;59870;50.106;8.580;2023-04-06T04:15:22;8.50;;;7.60;;
11245;SDS011;59870;50.106;8.580;2023-04-06T04:17:50;8.00;;;7.33;;
11245;SDS011;59870;50.106;8.580;2023-04-06T04:20:18;8.90;;;8.00;;
11245;SDS011;59870;50.106;8.580;2023-04-06T04:22:45;8.33;;;7.77;;
11245;SDS011;59870;50.106;8.580;2023-04-06T04:25:13;8.97;;;8.10;;
11245;SDS011;59870;50.106;8.580;2023-04-06T04:27:46;7.87;;;7.27;;
11245;SDS011;59870;50.106;8.580;2023-04-06T04:30:14;7.93;;;7.30;;
11245;SDS011;59870;50.106;8.580;2023-04-06T04:32:42;9.27;;;8.17;;
11245;SDS011;59870;50.106;8.580;2023-04-06T04:35:10;6.80;;;6.40;;
11245;SDS011;59870;50.106;8.580;2023-04-06T04:37:40;8.20;;;7.53;;
11245;SDS011;59870;50.106;8.580;2023-04-06T04:40:10;7.47;;;6.87;;
11245;SDS011;59870;50.106;8.580;2023-04-06T04:42:52;7.33;;;6.83;;
11245;SDS011;59870;50.106;8.580;2023-04-06T04:45:26;8.43;;;7.67;;
11245;SDS011;59870;50.106;8.580;2023-04-06T04:47:53;7.37;;;6.87;;
11245;SDS011;59870;50.106;8.580;2023-04-06T04:50:23;8.30;;;7.47;;
11245;SDS011;59870;50.106;8.580;2023-04-06T04:52:55;8.47;;;7.93;;
11245;SDS011;59870;50.106;8.580;2023-04-06T04:55:25;9.40;;;8.60;;
11245;SDS011;59870;50.106;8.580;2023-04-06T04:57:56;8.67;;;8.07;;
11245;SDS011;59870;50.106;8.580;2023-04-06T05:00:47;8.67;;;8.00;;
11245;SDS011;59870;50.106;8.580;2023-04-06T05:03:19;8.07;;;7.37;;
11245;SDS011;59870;50.106;8.580;2023-04-06T05:06:03;8.87;;;8.17;;
11245;SDS011;59870;50.106;8.580;2023-04-06T05:08:34;9.50;;;8.70;;
11245;SDS011;59870;50.106;8.580;2023-04-06T05:11:01;8.37;;;7.83;;
11245;SDS011;59870;50.106;8.580;2023-04-06T05:13:33;9.53;;;8.60;;
11245;SDS011;59870;50.106;8.580;2023-04-06T05:16:06;9.63;;;8.83;;
11245;SDS011;59870;50.106;8.580;2023-04-06T05:18:35;9.30;;;8.47;;
11245;SDS011;59870;50.106;8.580;2023-04-06T05:21:04;8.97;;;8.20;;
11245;SDS011;59870;50.106;8.580;2023-04-06T05:23:40;7.90;;;7.30;;
11245;SDS011;59870;50.106;8.580;2023-04-06T05:29:26;8.77;;;7.87;;
11245;SDS011;59870;50.106;8.580;2023-04-06T05:31:55;8.30;;;7.60;;
11245;SDS011;59870;50.106;8.580;2023-04-06T05:34:23;9.13;;;8.33;;
11245;SDS011;59870;50.106;8.580;2023-04-06T05:36:51;8.37;;;7.77;;
11245;SDS011;59870;50.106;8.580;2023-04-06T05:39:21;8.90;;;8.10;;
11245;SDS011;59870;50.106;8.580;2023-04-06T05:41:51;8.03;;;7.33;;
11245;SDS011;59870;50.106;8.580;2023-04-06T05:44:32;10.67;;;8.43;;
11245;SDS011;59870;50.106;8.580;2023-04-06T05:47:05;10.53;;;7.90;;
11245;SDS011;59870;50.106;8.580;2023-04-06T05:49:34;7.90;;;7.23;;
11245;SDS011;59870;50.106;8.580;2023-04-06T05:52:04;7.93;;;7.23;;
11245;SDS011;59870;50.106;8.580;2023-04-06T05:54:33;7.83;;;7.20;;
11245;SDS011;59870;50.106;8.580;2023-04-06T05:57:03;10.10;;;8.13;;
11245;SDS011;59870;50.106;8.580;2023-04-06T05:59:30;8.47;;;7.63;;
11245;SDS011;59870;50.106;8.580;2023-04-06T06:01:59;8.50;;;7.70;;
11245;SDS011;59870;50.106;8.580;2023-04-06T06:04:33;9.00;;;7.70;;
11245;SDS011;59870;50.106;8.580;2023-04-06T06:07:01;9.17;;;8.40;;
11245;SDS011;59870;50.106;8.580;2023-04-06T06:09:38;7.57;;;6.93;;
11245;SDS011;59870;50.106;8.580;2023-04-06T06:12:25;8.03;;;7.33;;
11245;SDS011;59870;50.106;8.580;2023-04-06T06:14:53;9.63;;;7.60;;
11245;SDS011;59870;50.106;8.580;2023-04-06T06:17:24;8.93;;;7.50;;
11245;SDS011;59870;50.106;8.580;2023-04-06T06:19:51;8.97;;;7.97;;
11245;SDS011;59870;50.106;8.580;2023-04-06T06:22:19;8.80;;;7.90;;
11245;SDS011;59870;50.106;8.580;2023-04-06T06:24:47;14.53;;;7.93;;
11245;SDS011;59870;50.106;8.580;2023-04-06T06:27:19;8.63;;;7.80;;
11245;SDS011;59870;50.106;8.580;2023-04-06T06:29:47;9.83;;;8.53;;
11245;SDS011;59870;50.106;8.580;2023-04-06T06:32:22;8.97;;;8.07;;
11245;SDS011;59870;50.106;8.580;2023-04-06T06:35:00;9.73;;;8.73;;
11245;SDS011;59870;50.106;8.580;2023-04-06T06:37:29;10.13;;;8.23;;
11245;SDS011;59870;50.106;8.580;2023-04-06T06:40:05;10.53;;;8.63;;
11245;SDS011;59870;50.106;8.580;2023-04-06T06:42:35;9.77;;;8.90;;
11245;SDS011;59870;50.106;8.580;2023-04-06T06:45:18;9.73;;;8.83;;
11245;SDS011;59870;50.106;8.580;2023-04-06T06:47:47;13.47;;;9.40;;
11245;SDS011;59870;50.106;8.580;2023-04-06T06:50:16;12.70;;;9.47;;
11245;SDS011;59870;50.106;8.580;2023-04-06T06:52:45;9.93;;;8.77;;
11245;SDS011;59870;50.106;8.580;2023-04-06T06:55:15;10.23;;;9.23;;
11245;SDS011;59870;50.106;8.580;2023-04-06T06:57:52;14.53;;;9.00;;
11245;SDS011;59870;50.106;8.580;2023-04-06T07:00:23;11.73;;;9.20;;
11245;SDS011;59870;50.106;8.580;2023-04-06T07:03:31;11.27;;;9.27;;
11245;SDS011;59870;50.106;8.580;2023-04-06T07:06:15;9.43;;;8.63;;
11245;SDS011;59870;50.106;8.580;2023-04-06T07:09:13;13.73;;;9.63;;
11245;SDS011;59870;50.106;8.580;2023-04-06T07:12:12;9.33;;;8.47;;
11245;SDS011;59870;50.106;8.580;2023-04-06T07:15:02;10.80;;;9.00;;
11245;SDS011;59870;50.106;8.580;2023-04-06T07:22:06;10.00;;;8.97;;
11245;SDS011;59870;50.106;8.580;2023-04-06T07:24:45;10.90;;;9.87;;
11245;SDS011;59870;50.106;8.580;2023-04-06T07:31:12;12.80;;;10.07;;
11245;SDS011;59870;50.106;8.580;2023-04-06T07:33:41;9.90;;;9.00;;
11245;SDS011;59870;50.106;8.580;2023-04-06T07:36:09;13.57;;;9.43;;
11245;SDS011;59870;50.106;8.580;2023-04-06T07:39:11;12.07;;;9.67;;
11245;SDS011;59870;50.106;8.580;2023-04-06T07:41:39;10.57;;;9.67;;
11245;SDS011;59870;50.106;8.580;2023-04-06T07:44:07;9.80;;;8.90;;
11245;SDS011;59870;50.106;8.580;2023-04-06T07:46:35;10.87;;;9.97;;
11245;SDS011;59870;50.106;8.580;2023-04-06T07:49:04;10.50;;;9.47;;
11245;SDS011;59870;50.106;8.580;2023-04-06T07:51:35;10.63;;;9.70;;
11245;SDS011;59870;50.106;8.580;2023-04-06T07:54:04;11.10;;;10.20;;
11245;SDS011;59870;50.106;8.580;2023-04-06T07:56:32;9.77;;;9.10;;
11245;SDS011;59870;50.106;8.580;2023-04-06T07:58:59;9.80;;;9.20;;
11245;SDS011;59870;50.106;8.580;2023-04-06T08:01:27;10.23;;;9.30;;
11245;SDS011;59870;50.106;8.580;2023-04-06T08:03:56;10.17;;;9.40;;
11245;SDS011;59870;50.106;8.580;2023-04-06T08:06:23;10.07;;;9.37;;
11245;SDS011;59870;50.106;8.580;2023-04-06T08:08:51;11.07;;;9.93;;
11245;SDS011;59870;50.106;8.580;2023-04-06T08:11:19;11.47;;;9.20;;
11245;SDS011;59870;50.106;8.580;2023-04-06T08:13:47;10.30;;;9.43;;
11245;SDS011;59870;50.106;8.580;2023-04-06T08:16:14;10.10;;;9.30;;
11245;SDS011;59870;50.106;8.580;2023-04-06T08:18:43;10.17;;;9.27;;
11245;SDS011;59870;50.106;8.580;2023-04-06T08:21:11;10.87;;;9.53;;
11245;SDS011;59870;50.106;8.580;2023-04-06T08:23:38;10.00;;;9.20;;
11245;SDS011;59870;50.106;8.580;2023-04-06T08:26:06;9.57;;;8.87;;
11245;SDS011;59870;50.106;8.580;2023-04-06T08:28:33;10.67;;;9.97;;
11245;SDS011;59870;50.106;8.580;2023-04-06T08:31:05;10.17;;;9.37;;
11245;SDS011;59870;50.106;8.580;2023-04-06T08:33:33;10.23;;;9.37;;
11245;SDS011;59870;50.106;8.580;2023-04-06T08:36:07;9.17;;;8.47;;
11245;SDS011;59870;50.106;8.580;2023-04-06T08:38:38;10.80;;;9.90;;
11245;SDS011;59870;50.106;8.580;2023-04-06T08:41:10;10.13;;;9.33;;
11245;SDS011;59870;50.106;8.580;2023-04-06T08:43:48;10.07;;;9.37;;
11245;SDS011;59870;50.106;8.580;2023-04-06T08:46:17;11.03;;;10.13;;
11245;SDS011;59870;50.106;8.580;2023-04-06T08:48:45;10.50;;;9.67;;
11245;SDS011;59870;50.106;8.580;2023-04-06T08:51:17;10.00;;;8.93;;
11245;SDS011;59870;50.106;8.580;2023-04-06T08:53:46;10.20;;;9.30;;
11245;SDS011;59870;50.106;8.580;2023-04-06T08:56:15;10.20;;;9.40;;
11245;SDS011;59870;50.106;8.580;2023-04-06T08:58:42;9.73;;;9.03;;
11245;SDS011;59870;50.106;8.580;2023-04-06T09:01:11;10.47;;;9.57;;
11245;SDS011;59870;50.106;8.580;2023-04-06T09:03:40;10.27;;;9.47;;
11245;SDS011;59870;50.106;8.580;2023-04-06T09:06:10;11.13;;;9.73;;
11245;SDS011;59870;50.106;8.580;2023-04-06T09:08:39;10.00;;;9.10;;
11245;SDS011;59870;50.106;8.580;2023-04-06T09:11:07;10.90;;;10.00;;
11245;SDS011;59870;50.106;8.580;2023-04-06T09:13:45;9.33;;;8.63;;
11245;SDS011;59870;50.106;8.580;2023-04-06T09:16:13;10.43;;;9.57;;
11245;SDS011;59870;50.106;8.580;2023-04-06T09:18:41;9.63;;;8.93;;
11245;SDS011;59870;50.106;8.580;2023-04-06T09:21:09;9.93;;;9.03;;
11245;SDS011;59870;50.106;8.580;2023-04-06T09:23:37;10.83;;;9.83;;
11245;SDS011;59870;50.106;8.580;2023-04-06T09:26:13;10.33;;;9.63;;
11245;SDS011;59870;50.106;8.580;2023-04-06T09:28:46;11.87;;;9.30;;
11245;SDS011;59870;50.106;8.580;2023-04-06T09:31:15;11.33;;;10.03;;
11245;SDS011;59870;50.106;8.580;2023-04-06T09:33:48;10.40;;;9.50;;
11245;SDS011;59870;50.106;8.580;2023-04-06T09:36:15;9.70;;;9.00;;
11245;SDS011;59870;50.106;8.580;2023-04-06T09:41:24;10.40;;;9.47;;
11245;SDS011;59870;50.106;8.580;2023-04-06T09:43:52;11.33;;;9.17;;
11245;SDS011;59870;50.106;8.580;2023-04-06T09:46:32;10.23;;;9.37;;
11245;SDS011;59870;50.106;8.580;2023-04-06T09:49:30;10.67;;;9.97;;
11245;SDS011;59870;50.106;8.580;2023-04-06T09:52:02;11.13;;;9.47;;
11245;SDS011;59870;50.106;8.580;2023-04-06T09:54:30;10.13;;;9.30;;
11245;SDS011;59870;50.106;8.580;2023-04-06T09:59:38;10.37;;;9.57;;
11245;SDS011;59870;50.106;8.580;2023-04-06T10:02:24;9.73;;;8.93;;
11245;SDS011;59870;50.106;8.580;2023-04-06T10:05:09;11.07;;;9.07;;
11245;SDS011;59870;50.106;8.580;2023-04-06T10:08:19;10.13;;;9.07;;
11245;SDS011;59870;50.106;8.580;2023-04-06T10:10:53;14.43;;;9.80;;
11245;SDS011;59870;50.106;8.580;2023-04-06T10:13:23;10.57;;;9.43;;
11245;SDS011;59870;50.106;8.580;2023-04-06T10:15:51;9.57;;;8.57;;
11245;SDS011;59870;50.106;8.580;2023-04-06T10:18:19;9.97;;;9.03;;
11245;SDS011;59870;50.106;8.580;2023-04-06T10:20:54;9.93;;;9.03;;
11245;SDS011;59870;50.106;8.580;2023-04-06T10:26:01;14.47;;;10.63;;
11245;SDS011;59870;50.106;8.580;2023-04-06T10:28:33;10.23;;;9.30;;
11245;SDS011;59870;50.106;8.580;2023-04-06T10:31:06;10.30;;;9.40;;
11245;SDS011;59870;50.106;8.580;2023-04-06T10:33:34;10.30;;;9.30;;
11245;SDS011;59870;50.106;8.580;2023-04-06T10:36:12;10.70;;;9.23;;
11245;SDS011;59870;50.106;8.580;2023-04-06T10:38:53;10.40;;;9.57;;
11245;SDS011;59870;50.106;8.580;2023-04-06T10:41:44;11.60;;;9.77;;
11245;SDS011;59870;50.106;8.580;2023-04-06T10:44:22;13.17;;;9.80;;
11245;SDS011;59870;50.106;8.580;2023-04-06T10:46:57;12.87;;;9.70;;
11245;SDS011;59870;50.106;8.580;2023-04-06T10:49:28;9.60;;;8.70;;
11245;SDS011;59870;50.106;8.580;2023-04-06T10:51:56;11.67;;;9.13;;
11245;SDS011;59870;50.106;8.580;2023-04-06T10:54:24;11.90;;;10.63;;
11245;SDS011;59870;50.106;8.580;2023-04-06T10:56:54;13.77;;;8.93;;
11245;SDS011;59870;50.106;8.580;2023-04-06T10:59:28;11.13;;;10.00;;
11245;SDS011;59870;50.106;8.580;2023-04-06T11:01:56;11.37;;;10.27;;
11245;SDS011;59870;50.106;8.580;2023-04-06T11:04:24;10.47;;;9.53;;
11245;SDS011;59870;50.106;8.580;2023-04-06T11:06:52;10.63;;;9.57;;
11245;SDS011;59870;50.106;8.580;2023-04-06T11:18:58;12.60;;;9.37;;
11245;SDS011;59870;50.106;8.580;2023-04-06T11:21:34;10.77;;;9.50;;
11245;SDS011;59870;50.106;8.580;2023-04-06T11:24:23;12.23;;;10.37;;
11245;SDS011;59870;50.106;8.580;2023-04-06T11:26:53;15.27;;;10.20;;
11245;SDS011;59870;50.106;8.580;2023-04-06T11:29:24;17.37;;;10.20;;
11245;SDS011;59870;50.106;8.580;2023-04-06T11:31:59;12.10;;;10.33;;
11245;SDS011;59870;50.106;8.580;2023-04-06T11:34:29;11.63;;;10.23;;
11245;SDS011;59870;50.106;8.580;2023-04-06T11:36:59;12.30;;;10.90;;
11245;SDS011;59870;50.106;8.580;2023-04-06T11:39:29;10.73;;;9.60;;
11245;SDS011;59870;50.106;8.580;2023-04-06T11:41:58;14.87;;;11.30;;
11245;SDS011;59870;50.106;8.580;2023-04-06T11:44:34;12.70;;;10.27;;
11245;SDS011;59870;50.106;8.580;2023-04-06T11:47:04;12.03;;;10.77;;
11245;SDS011;59870;50.106;8.580;2023-04-06T11:49:41;11.37;;;10.27;;
11245;SDS011;59870;50.106;8.580;2023-04-06T11:52:15;15.13;;;11.07;;
11245;SDS011;59870;50.106;8.580;2023-04-06T11:54:45;11.17;;;10.07;;
11245;SDS011;59870;50.106;8.580;2023-04-06T11:57:14;11.63;;;10.33;;
11245;SDS011;59870;50.106;8.580;2023-04-06T11:59:44;12.63;;;10.70;;
11245;SDS011;59870;50.106;8.580;2023-04-06T12:02:13;12.17;;;11.07;;
11245;SDS011;59870;50.106;8.580;2023-04-06T12:04:40;18.80;;;11.47;;
11245;SDS011;59870;50.106;8.580;2023-04-06T12:07:09;11.40;;;10.30;;
11245;SDS011;59870;50.106;8.580;2023-04-06T12:25:04;10.73;;;9.73;;
11245;SDS011;59870;50.106;8.580;2023-04-06T12:27:33;13.43;;;10.43;;
11245;SDS011;59870;50.106;8.580;2023-04-06T12:33:16;10.40;;;9.40;;
11245;SDS011;59870;50.106;8.580;2023-04-06T12:35:45;10.43;;;9.43;;
11245;SDS011;59870;50.106;8.580;2023-04-06T12:38:21;11.27;;;10.07;;
11245;SDS011;59870;50.106;8.580;2023-04-06T12:40:49;10.90;;;9.90;;
11245;SDS011;59870;50.106;8.580;2023-04-06T12:43:16;12.13;;;10.87;;
11245;SDS011;59870;50.106;8.580;2023-04-06T12:45:44;10.83;;;9.83;;
11245;SDS011;59870;50.106;8.580;2023-04-06T12:48:13;9.63;;;8.73;;
11245;SDS011;59870;50.106;8.580;2023-04-06T12:50:40;10.40;;;9.47;;
11245;SDS011;59870;50.106;8.580;2023-04-06T12:53:08;11.30;;;10.23;;
11245;SDS011;59870;50.106;8.580;2023-04-06T12:55:36;17.87;;;11.93;;
11245;SDS011;59870;50.106;8.580;2023-04-06T12:58:03;9.80;;;8.83;;
11245;SDS011;59870;50.106;8.580;2023-04-06T13:00:31;9.40;;;8.50;;
11245;SDS011;59870;50.106;8.580;2023-04-06T13:02:59;10.80;;;8.90;;
11245;SDS011;59870;50.106;8.580;2023-04-06T13:05:27;9.33;;;8.53;;
11245;SDS011;59870;50.106;8.580;2023-04-06T13:07:56;9.77;;;8.13;;
11245;SDS011;59870;50.106;8.580;2023-04-06T13:10:24;9.40;;;8.53;;
11245;SDS011;59870;50.106;8.580;2023-04-06T13:12:52;8.60;;;7.90;;
11245;SDS011;59870;50.106;8.580;2023-04-06T13:15:20;10.53;;;8.63;;
11245;SDS011;59870;50.106;8.580;2023-04-06T13:17:50;9.97;;;8.97;;
11245;SDS011;59870;50.106;8.580;2023-04-06T13:20:20;9.00;;;8.23;;
11245;SDS011;59870;50.106;8.580;2023-04-06T13:22:48;11.03;;;9.30;;
11245;SDS011;59870;50.106;8.580;2023-04-06T13:25:15;9.37;;;8.10;;
11245;SDS011;59870;50.106;8.580;2023-04-06T13:27:44;8.47;;;7.70;;
11245;SDS011;59870;50.106;8.580;2023-04-06T13:30:14;8.00;;;7.40;;
11245;SDS011;59870;50.106;8.580;2023-04-06T13:32:43;8.70;;;7.97;;
11245;SDS011;59870;50.106;8.580;2023-04-06T13:35:12;8.90;;;8.10;;
11245;SDS011;59870;50.106;8.580;2023-04-06T13:37:39;8.90;;;8.00;;
11245;SDS011;59870;50.106;8.580;2023-04-06T13:40:07;8.90;;;8.10;;
11245;SDS011;59870;50.106;8.580;2023-04-06T13:42:35;9.63;;;8.83;;
11245;SDS011;59870;50.106;8.580;2023-04-06T13:45:05;10.73;;;9.60;;
11245;SDS011;59870;50.106;8.580;2023-04-06T13:47:33;10.23;;;9.30;;
11245;SDS011;59870;50.106;8.580;2023-04-06T13:50:02;11.20;;;8.73;;
11245;SDS011;59870;50.106;8.580;2023-04-06T13:52:30;8.83;;;8.17;;
11245;SDS011;59870;50.106;8.580;2023-04-06T13:54:58;8.63;;;7.93;;
11245;SDS011;59870;50.106;8.580;2023-04-06T13:57:26;9.13;;;8.33;;
11245;SDS011;59870;50.106;8.580;2023-04-06T13:59:53;8.77;;;7.97;;
11245;SDS011;59870;50.106;8.580;2023-04-06T14:02:21;9.30;;;8.50;;
11245;SDS011;59870;50.106;8.580;2023-04-06T14:04:54;9.10;;;8.20;;
11245;SDS011;59870;50.106;8.580;2023-04-06T14:07:22;9.00;;;8.13;;
11245;SDS011;59870;50.106;8.580;2023-04-06T14:09:50;11.07;;;8.90;;
11245;SDS011;59870;50.106;8.580;2023-04-06T14:12:18;9.83;;;8.90;;
11245;SDS011;59870;50.106;8.580;2023-04-06T14:14:45;8.10;;;7.50;;
11245;SDS011;59870;50.106;8.580;2023-04-06T14:17:13;8.50;;;7.90;;
11245;SDS011;59870;50.106;8.580;2023-04-06T14:19:40;7.37;;;6.67;;
11245;SDS011;59870;50.106;8.580;2023-04-06T14:22:08;7.43;;;6.73;;
11245;SDS011;59870;50.106;8.580;2023-04-06T14:24:36;8.63;;;7.93;;
11245;SDS011;59870;50.106;8.580;2023-04-06T14:27:04;7.97;;;7.27;;
11245;SDS011;59870;50.106;8.580;2023-04-06T14:29:34;8.30;;;7.60;;
11245;SDS011;59870;50.106;8.580;2023-04-06T14:32:03;7.73;;;7.07;;
11245;SDS011;59870;50.106;8.580;2023-04-06T14:34:30;7.60;;;7.00;;
11245;SDS011;59870;50.106;8.580;2023-04-06T14:36:58;7.73;;;7.13;;
11245;SDS011;59870;50.106;8.580;2023-04-06T14:39:26;7.83;;;7.07;;
11245;SDS011;59870;50.106;8.580;2023-04-06T14:41:53;8.30;;;7.43;;
11245;SDS011;59870;50.106;8.580;2023-04-06T14:44:21;7.73;;;7.03;;
11245;SDS011;59870;50.106;8.580;2023-04-06T14:46:49;7.80;;;7.00;;
11245;SDS011;59870;50.106;8.580;2023-04-06T14:49:17;7.90;;;7.10;;
11245;SDS011;59870;50.106;8.580;2023-04-06T14:51:44;7.47;;;6.97;;
11245;SDS011;59870;50.106;8.580;2023-04-06T14:54:12;8.03;;;7.27;;
11245;SDS011;59870;50.106;8.580;2023-04-06T14:56:39;7.40;;;6.87;;
11245;SDS011;59870;50.106;8.580;2023-04-06T14:59:07;9.40;;;7.50;;
11245;SDS011;59870;50.106;8.580;2023-04-06T15:01:34;8.30;;;7.60;;
11245;SDS011;59870;50.106;8.580;2023-04-06T15:04:03;7.53;;;6.90;;
11245;SDS011;59870;50.106;8.580;2023-04-06T15:09:50;6.87;;;6.27;;
11245;SDS011;59870;50.106;8.580;2023-04-06T15:12:18;7.17;;;6.47;;
11245;SDS011;59870;50.106;8.580;2023-04-06T15:14:46;7.57;;;6.97;;
11245;SDS011;59870;50.106;8.580;2023-04-06T15:17:13;7.57;;;6.87;;
11245;SDS011;59870;50.106;8.580;2023-04-06T15:19:41;8.37;;;7.23;;
11245;SDS011;59870;50.106;8.580;2023-04-06T15:22:10;7.93;;;7.27;;
11245;SDS011;59870;50.106;8.580;2023-04-06T15:24:38;7.27;;;6.67;;
11245;SDS011;59870;50.106;8.580;2023-04-06T15:27:06;8.50;;;7.67;;
11245;SDS011;59870;50.106;8.580;2023-04-06T15:29:34;8.67;;;7.97;;
11245;SDS011;59870;50.106;8.580;2023-04-06T15:32:02;8.37;;;7.63;;
11245;SDS011;59870;50.106;8.580;2023-04-06T15:34:30;9.90;;;7.60;;
11245;SDS011;59870;50.106;8.580;2023-04-06T15:37:02;8.83;;;7.97;;
11245;SDS011;59870;50.106;8.580;2023-04-06T15:39:31;9.40;;;7.40;;
11245;SDS011;59870;50.106;8.580;2023-04-06T15:42:00;8.33;;;7.63;;
11245;SDS011;59870;50.106;8.580;2023-04-06T15:44:28;10.80;;;7.73;;
11245;SDS011;59870;50.106;8.580;2023-04-06T15:46:55;10.73;;;6.93;;
11245;SDS011;59870;50.106;8.580;2023-04-06T15:49:24;6.87;;;6.37;;
11245;SDS011;59870;50.106;8.580;2023-04-06T15:51:52;6.37;;;5.73;;
11245;SDS011;59870;50.106;8.580;2023-04-06T15:54:19;5.93;;;5.53;;
11245;SDS011;59870;50.106;8.580;2023-04-06T15:56:48;6.27;;;5.77;;
11245;SDS011;59870;50.106;8.580;2023-04-06T15:59:16;5.40;;;5.10;;
11245;SDS011;59870;50.106;8.580;2023-04-06T16:01:47;5.47;;;4.97;;
11245;SDS011;59870;50.106;8.580;2023-04-06T16:04:15;5.67;;;5.13;;
11245;SDS011;59870;50.106;8.580;2023-04-06T16:06:43;6.70;;;6.00;;
11245;SDS011;59870;50.106;8.580;2023-04-06T16:09:10;7.17;;;5.33;;
11245;SDS011;59870;50.106;8.580;2023-04-06T16:14:35;8.40;;;6.37;;
11245;SDS011;59870;50.106;8.580;2023-04-06T16:17:03;6.40;;;5.93;;
11245;SDS011;59870;50.106;8.580;2023-04-06T16:19:31;6.67;;;6.10;;
11245;SDS011;59870;50.106;8.580;2023-04-06T16:21:59;6.87;;;6.27;;
11245;SDS011;59870;50.106;8.580;2023-04-06T16:24:27;6.57;;;5.97;;
11245;SDS011;59870;50.106;8.580;2023-04-06T16:26:55;6.90;;;6.40;;
11245;SDS011;59870;50.106;8.580;2023-04-06T16:29:24;6.67;;;6.07;;
11245;SDS011;59870;50.106;8.580;2023-04-06T16:31:54;6.57;;;5.97;;
11245;SDS011;59870;50.106;8.580;2023-04-06T16:34:22;7.30;;;6.13;;
11245;SDS011;59870;50.106;8.580;2023-04-06T16:36:51;6.80;;;6.17;;
11245;SDS011;59870;50.106;8.580;2023-04-06T16:39:19;6.63;;;6.03;;
11245;SDS011;59870;50.106;8.580;2023-04-06T16:41:48;6.73;;;6.13;;
11245;SDS011;59870;50.106;8.580;2023-04-06T16:44:15;6.87;;;6.37;;
11245;SDS011;59870;50.106;8.580;2023-04-06T16:46:43;6.50;;;6.00;;
11245;SDS011;59870;50.106;8.580;2023-04-06T16:49:13;7.17;;;6.60;;
11245;SDS011;59870;50.106;8.580;2023-04-06T16:51:57;6.93;;;6.33;;
11245;SDS011;59870;50.106;8.580;2023-04-06T16:54:29;7.20;;;6.50;;
11245;SDS011;59870;50.106;8.580;2023-04-06T16:56:57;6.67;;;6.07;;
11245;SDS011;59870;50.106;8.580;2023-04-06T16:59:29;6.40;;;6.00;;
11245;SDS011;59870;50.106;8.580;2023-04-06T17:02:00;6.10;;;5.53;;
11245;SDS011;59870;50.106;8.580;2023-04-06T17:04:28;6.30;;;5.80;;
11245;SDS011;59870;50.106;8.580;2023-04-06T17:06:57;5.80;;;5.30;;
11245;SDS011;59870;50.106;8.580;2023-04-06T17:09:25;6.67;;;6.00;;
11245;SDS011;59870;50.106;8.580;2023-04-06T17:11:52;6.13;;;5.23;;
11245;SDS011;59870;50.106;8.580;2023-04-06T17:14:20;5.33;;;4.83;;
11245;SDS011;59870;50.106;8.580;2023-04-06T17:16:48;6.00;;;5.27;;
11245;SDS011;59870;50.106;8.580;2023-04-06T17:19:15;5.37;;;4.93;;
11245;SDS011;59870;50.106;8.580;2023-04-06T17:21:43;12.00;;;10.83;;
11245;SDS011;59870;50.106;8.580;2023-04-06T17:24:11;5.27;;;4.97;;
11245;SDS011;59870;50.106;8.580;2023-04-06T17:26:39;4.50;;;4.20;;